Time;durP1;ratioP1;P1;durP2;ratioP2;P2;SDS_P1;SDS_P2;PMS_P1;PMS_P2;Temp;Humidity;BMP_temperature;BMP_pressure;BME280_temperature;BME280_humidity;BME280_pressure;Samples;Min_cycle;Max_cycle;Signal;HPM_P1;HPM_P2
2022/07/02 00:01:49;;;;;;;;;2.50;2.50;;;;;20.07;40.11;101420.81;4904988;28;45796;-83
2022/07/02 00:04:25;;;;;;;;;3.00;2.00;;;;;19.96;40.23;101405.06;4895022;28;45990;-82
2022/07/02 00:06:52;;;;;;;;;3.25;3.00;;;;;19.94;39.99;101400.88;4895254;29;45802;-84
2022/07/02 00:09:17;;;;;;;;;3.00;2.75;;;;;20.01;40.14;101413.44;4898869;28;46550;-81
2022/07/02 00:12:18;;;;;;;;;3.75;3.25;;;;;20.02;39.99;101412.44;4900681;28;47278;-83
2022/07/02 00:15:01;;;;;;;;;3.75;3.00;;;;;20.00;40.09;101419.72;4865239;29;45639;-83
2022/07/02 00:17:27;;;;;;;;;3.00;3.00;;;;;19.93;40.54;101407.16;4899882;28;46006;-80
2022/07/02 00:23:17;;;;;;;;;2.50;2.00;;;;;19.91;40.87;101415.31;5002188;22;45877;-84
2022/07/02 00:25:54;;;;;;;;;2.00;2.00;;;;;19.94;40.98;101420.31;5018216;23;45889;-84
2022/07/02 00:28:24;;;;;;;;;4.25;3.00;;;;;19.88;40.97;101420.09;5013604;28;45728;-82
2022/07/02 00:34:13;;;;;;;;;2.50;2.00;;;;;19.67;40.96;101404.38;5011831;28;45697;-82
2022/07/02 00:42:54;;;;;;;;;2.00;2.00;;;;;19.57;41.08;101387.66;5006368;28;46266;-82
2022/07/02 00:48:30;;;;;;;;;3.00;3.00;;;;;19.52;41.45;101381.94;5013799;28;46024;-83
2022/07/02 00:50:55;;;;;;;;;6.50;5.00;;;;;19.69;41.67;101408.59;5013416;28;46413;-83
2022/07/02 00:53:21;;;;;;;;;4.00;4.00;;;;;19.63;41.31;101395.03;5013452;28;45607;-84
2022/07/02 00:55:55;;;;;;;;;4.00;4.00;;;;;19.67;41.55;101399.06;4994039;28;46046;-81
2022/07/02 00:58:20;;;;;;;;;5.00;4.00;;;;;19.58;42.33;101381.34;5005542;28;45800;-81
2022/07/02 01:00:46;;;;;;;;;3.25;3.25;;;;;19.69;42.24;101400.63;5012106;28;45816;-84
2022/07/02 01:03:12;;;;;;;;;5.00;4.25;;;;;19.67;42.29;101393.75;5012423;28;48218;-82
2022/07/02 01:05:38;;;;;;;;;4.00;3.25;;;;;19.71;42.39;101405.75;5013467;28;45653;-84
2022/07/02 01:11:34;;;;;;;;;4.00;4.00;;;;;19.67;42.34;101396.41;5012644;28;45714;-81
2022/07/02 01:14:02;;;;;;;;;2.00;2.00;;;;;19.64;42.52;101396.72;4931971;28;46232;-82
2022/07/02 01:16:27;;;;;;;;;3.00;3.00;;;;;19.62;42.61;101396.88;4925536;28;45810;-82
2022/07/02 01:18:53;;;;;;;;;3.00;3.00;;;;;19.57;42.72;101401.78;4946891;28;45771;-82
2022/07/02 01:21:18;;;;;;;;;2.50;2.50;;;;;19.47;42.46;101392.19;4943669;28;45905;-80
2022/07/02 01:23:43;;;;;;;;;4.00;4.00;;;;;19.42;43.20;101389.09;4932331;28;45812;-81
2022/07/02 01:26:09;;;;;;;;;2.25;2.25;;;;;19.40;43.49;101397.22;4939579;28;45799;-81
2022/07/02 01:28:34;;;;;;;;;3.00;3.00;;;;;19.37;42.83;101396.69;4932933;28;45989;-81
2022/07/02 01:31:00;;;;;;;;;4.00;3.00;;;;;19.39;43.21;101405.31;4931620;28;45743;-82
2022/07/02 01:33:25;;;;;;;;;2.00;2.00;;;;;19.37;42.87;101410.81;4929367;28;45645;-83
2022/07/02 01:35:51;;;;;;;;;3.00;2.00;;;;;19.38;43.01;101412.47;4923277;28;45756;-82
2022/07/02 01:38:16;;;;;;;;;4.00;4.00;;;;;19.31;43.19;101405.22;4933894;28;45658;-81
2022/07/02 01:40:41;;;;;;;;;4.00;3.25;;;;;19.27;43.42;101402.84;4943932;28;46711;-81
2022/07/02 01:43:07;;;;;;;;;4.00;3.00;;;;;19.28;43.75;101409.84;4945352;28;46957;-82
2022/07/02 01:49:07;;;;;;;;;4.75;4.00;;;;;19.17;43.60;101398.56;5109219;23;45966;-81
2022/07/02 01:51:33;;;;;;;;;4.50;4.00;;;;;19.24;44.20;101413.78;4987936;28;48720;-82
2022/07/02 01:53:58;;;;;;;;;3.00;3.00;;;;;19.13;43.95;101400.69;4991977;28;47076;-82
2022/07/02 01:56:24;;;;;;;;;3.75;2.75;;;;;19.20;44.17;101409.75;4986832;28;46021;-81
2022/07/02 01:58:49;;;;;;;;;3.75;3.75;;;;;19.17;44.41;101410.03;4993161;28;45851;-82
2022/07/02 02:01:14;;;;;;;;;3.75;3.00;;;;;19.09;44.06;101393.97;4993088;28;45761;-81
2022/07/02 02:03:40;;;;;;;;;3.75;3.00;;;;;19.08;43.93;101391.47;4994245;28;46375;-81
2022/07/02 02:09:27;;;;;;;;;4.00;3.00;;;;;19.07;44.34;101387.13;5050650;23;46039;-79
2022/07/02 02:28:40;;;;;;;;;0.00;0.00;;;;;18.91;45.06;101392.19;5257278;23;46390;-79
2022/07/02 02:31:05;;;;;;;;;4.00;3.00;;;;;18.90;45.29;101396.69;4878801;29;45681;-79
2022/07/02 02:33:37;;;;;;;;;4.00;4.00;;;;;18.89;44.87;101395.03;4880054;29;47413;-79
2022/07/02 02:36:03;;;;;;;;;3.00;2.50;;;;;18.84;45.15;101373.34;4874816;29;48163;-82
2022/07/02 02:38:28;;;;;;;;;3.00;3.00;;;;;18.84;44.90;101387.47;4877805;29;45904;-80
2022/07/02 02:44:47;;;;;;;;;3.00;3.00;;;;;18.68;45.47;101365.97;4737467;29;46322;-80
2022/07/02 02:47:12;;;;;;;;;3.50;3.00;;;;;18.75;45.13;101375.06;4735031;29;45817;-79
2022/07/02 02:49:38;;;;;;;;;4.00;3.00;;;;;18.72;45.43;101370.03;4734978;29;45976;-79
2022/07/02 02:52:04;;;;;;;;;3.00;3.00;;;;;18.81;45.69;101387.75;4749122;29;45945;-80
2022/07/02 02:54:32;;;;;;;;;3.00;3.00;;;;;18.81;45.57;101385.09;4744667;29;45673;-80
2022/07/02 02:57:00;;;;;;;;;2.75;2.75;;;;;18.79;45.54;101380.91;4732443;29;46395;-79
2022/07/02 03:05:40;;;;;;;;;3.00;2.00;;;;;18.79;45.78;101383.56;4714729;30;46193;-80
2022/07/02 03:08:27;;;;;;;;;2.75;2.50;;;;;18.81;45.77;101392.22;4720974;30;46052;-80
2022/07/02 03:10:52;;;;;;;;;2.50;2.50;;;;;18.76;46.11;101382.03;4712846;30;46450;-81
2022/07/02 03:13:17;;;;;;;;;2.25;2.25;;;;;18.77;45.58;101382.88;4698591;30;45843;-81
2022/07/02 03:15:43;;;;;;;;;1.50;1.00;;;;;18.78;46.06;101384.56;4707258;30;45770;-81
2022/07/02 03:18:08;;;;;;;;;4.50;4.00;;;;;18.77;45.63;101385.53;4699124;30;46458;-81
2022/07/02 03:20:34;;;;;;;;;4.00;3.25;;;;;18.67;46.17;101371.44;4751006;29;46200;-80
2022/07/02 03:23:00;;;;;;;;;3.00;3.00;;;;;18.79;46.09;101388.88;4823324;29;45830;-80
2022/07/02 03:26:07;;;;;;;;;4.00;4.00;;;;;18.77;45.82;101388.19;4817395;29;46851;-82
2022/07/02 03:28:52;;;;;;;;;4.75;3.00;;;;;18.73;45.82;101386.81;4815070;29;46376;-81
2022/07/02 03:31:18;;;;;;;;;4.25;3.25;;;;;18.75;45.99;101388.31;4820095;29;46046;-80
2022/07/02 03:33:43;;;;;;;;;4.50;3.50;;;;;18.69;46.22;101372.97;4824096;29;45760;-80
2022/07/02 03:36:11;;;;;;;;;3.25;3.00;;;;;18.74;45.95;101386.66;4821202;29;48071;-80
2022/07/02 03:38:38;;;;;;;;;3.00;3.00;;;;;18.75;46.25;101387.50;4825959;29;46460;-80
2022/07/02 03:41:03;;;;;;;;;3.00;3.00;;;;;18.77;45.73;101388.19;4897130;28;45718;-80
2022/07/02 03:43:29;;;;;;;;;3.75;3.75;;;;;18.72;46.38;101378.00;4897688;28;45676;-81
2022/07/02 03:45:54;;;;;;;;;3.25;3.25;;;;;18.72;46.23;101378.00;4896521;29;45739;-80
2022/07/02 03:48:20;;;;;;;;;11.75;11.00;;;;;18.72;46.15;101372.69;4896868;28;46349;-80
2022/07/02 03:50:45;;;;;;;;;18.00;17.25;;;;;18.78;46.12;101387.22;4896084;28;45779;-80
2022/07/02 03:53:10;;;;;;;;;7.00;5.00;;;;;18.73;46.29;101381.50;4898944;29;45654;-80
2022/07/02 03:55:36;;;;;;;;;4.50;4.50;;;;;18.83;46.36;101398.25;4897183;29;45716;-80
2022/07/02 03:58:02;;;;;;;;;5.00;5.00;;;;;18.83;46.23;101398.25;4896864;28;46691;-80
2022/07/02 04:00:27;;;;;;;;;13.00;12.50;;;;;18.82;45.93;101393.91;4897738;29;45620;-81
2022/07/02 04:02:53;;;;;;;;;9.00;8.00;;;;;18.84;46.08;101394.59;4896603;28;45758;-80
2022/07/02 04:05:19;;;;;;;;;5.00;4.75;;;;;18.78;46.43;101379.25;4893292;28;46499;-80
2022/07/02 04:07:44;;;;;;;;;6.00;4.00;;;;;18.84;45.91;101391.94;4897538;29;45716;-81
2022/07/02 04:10:09;;;;;;;;;22.25;17.75;;;;;18.80;45.99;101385.25;4897660;28;45776;-81
2022/07/02 04:12:35;;;;;;;;;8.75;8.25;;;;;18.78;46.34;101384.56;4897713;29;45660;-81
2022/07/02 04:15:00;;;;;;;;;8.50;8.50;;;;;18.83;46.65;101388.47;4896335;29;46522;-80
2022/07/02 04:17:26;;;;;;;;;4.00;3.00;;;;;18.77;46.56;101383.72;4895446;28;46354;-80
2022/07/02 04:19:52;;;;;;;;;4.50;3.00;;;;;18.73;46.55;101373.53;4896285;28;45784;-81
2022/07/02 04:22:17;;;;;;;;;7.00;7.00;;;;;18.85;46.58;101393.63;4891552;28;46055;-79
2022/07/02 04:24:43;;;;;;;;;6.00;5.00;;;;;18.81;46.52;101384.25;4902811;28;46375;-80
2022/07/02 04:27:08;;;;;;;;;5.00;4.75;;;;;18.82;46.61;101391.25;4895340;28;46355;-80
2022/07/02 04:29:33;;;;;;;;;6.00;5.00;;;;;18.75;46.91;101374.22;4894843;28;45891;-80
2022/07/02 04:31:59;;;;;;;;;4.25;3.00;;;;;18.78;46.84;101388.06;4899073;28;46346;-81
2022/07/02 04:34:24;;;;;;;;;4.00;4.00;;;;;18.84;46.95;101389.28;4902821;28;46294;-80
2022/07/02 04:36:50;;;;;;;;;5.50;5.00;;;;;18.80;46.93;101382.59;4896589;28;45700;-79
2022/07/02 04:39:16;;;;;;;;;5.00;5.00;;;;;18.71;47.02;101367.53;4893526;28;45875;-80
2022/07/02 04:41:41;;;;;;;;;5.75;5.00;;;;;18.85;46.60;101397.09;4897553;29;45640;-81
2022/07/02 04:44:07;;;;;;;;;4.00;4.00;;;;;18.84;46.97;101400.75;4896814;29;45572;-81
2022/07/02 04:46:33;;;;;;;;;4.75;4.00;;;;;18.77;46.85;101388.19;4894473;28;46237;-79
2022/07/02 04:48:58;;;;;;;;;7.00;5.00;;;;;18.85;46.54;101398.94;4896766;29;46037;-81
2022/07/02 04:51:24;;;;;;;;;4.25;4.25;;;;;18.85;47.33;101390.97;4896115;28;45680;-79
2022/07/02 04:53:49;;;;;;;;;5.25;5.00;;;;;18.74;47.15;101377.84;4883755;29;48795;-79
2022/07/02 04:56:14;;;;;;;;;5.25;5.00;;;;;18.85;46.88;101396.28;4891091;29;45770;-80
2022/07/02 04:58:40;;;;;;;;;7.50;5.00;;;;;18.76;46.85;101376.72;4896167;28;46596;-79
2022/07/02 05:01:05;;;;;;;;;4.50;4.50;;;;;18.81;47.17;101387.75;4899582;28;45941;-80
2022/07/02 05:03:31;;;;;;;;;4.75;4.75;;;;;18.79;47.27;101380.91;4899701;28;47299;-79
2022/07/02 05:05:57;;;;;;;;;6.25;5.00;;;;;18.77;46.97;101370.44;4895085;28;46231;-82
2022/07/02 05:08:26;;;;;;;;;5.00;5.00;;;;;18.78;46.92;101379.25;4896962;29;45682;-81
2022/07/02 05:10:55;;;;;;;;;5.00;5.00;;;;;18.81;47.27;101374.50;4891468;28;46328;-80
2022/07/02 05:13:22;;;;;;;;;4.50;3.25;;;;;18.88;47.03;101379.22;4892812;28;45898;-82
2022/07/02 05:15:48;;;;;;;;;5.00;4.75;;;;;18.88;47.33;101388.03;4895067;28;45999;-79
2022/07/02 05:18:14;;;;;;;;;5.75;4.50;;;;;18.91;47.10;101385.06;4893792;28;46224;-81
2022/07/02 05:20:40;;;;;;;;;4.50;4.50;;;;;18.86;46.95;101379.38;4879953;29;45936;-81
2022/07/02 05:23:05;;;;;;;;;4.00;4.00;;;;;18.89;46.89;101383.56;4895743;29;45695;-81
2022/07/02 05:25:30;;;;;;;;;4.50;4.00;;;;;18.90;47.29;101386.06;4895119;28;45813;-81
2022/07/02 05:27:56;;;;;;;;;6.50;4.50;;;;;18.90;47.11;101383.41;4896279;29;45632;-81
2022/07/02 05:30:21;;;;;;;;;4.00;4.00;;;;;18.82;46.45;101385.94;4894017;28;46078;-81
2022/07/02 05:32:47;;;;;;;;;6.00;4.00;;;;;18.88;46.75;101390.69;4894258;28;46692;-82
2022/07/02 05:35:12;;;;;;;;;3.75;3.50;;;;;18.95;46.58;101390.97;4895650;29;46552;-80
2022/07/02 05:37:37;;;;;;;;;6.75;4.50;;;;;18.93;46.68;101391.09;4879455;29;45620;-81
2022/07/02 05:40:04;;;;;;;;;4.00;4.00;;;;;18.94;47.05;101386.63;4896111;28;46365;-81
2022/07/02 05:42:29;;;;;;;;;4.25;4.00;;;;;18.97;47.20;101392.47;4894358;28;45578;-80
2022/07/02 05:44:55;;;;;;;;;5.00;4.25;;;;;18.96;47.17;101388.13;4895478;29;46579;-81
2022/07/02 05:47:26;;;;;;;;;4.00;3.00;;;;;18.91;46.99;101381.59;4890042;28;45856;-79
2022/07/02 05:49:52;;;;;;;;;4.00;3.75;;;;;19.03;46.79;101391.91;4899228;28;45808;-80
2022/07/02 05:52:18;;;;;;;;;6.00;5.00;;;;;18.95;46.73;101378.50;4897097;28;45757;-81
2022/07/02 05:54:44;;;;;;;;;5.25;5.00;;;;;19.06;46.87;101391.59;4895779;29;45631;-78
2022/07/02 05:57:10;;;;;;;;;4.25;4.00;;;;;19.02;46.99;101378.75;4897746;28;45675;-81
2022/07/02 05:59:36;;;;;;;;;4.25;3.50;;;;;19.03;46.25;101391.91;4895319;28;45774;-80
2022/07/02 06:02:04;;;;;;;;;4.50;4.50;;;;;19.10;46.95;101395.66;4893683;28;46465;-79
2022/07/02 06:04:31;;;;;;;;;4.25;4.25;;;;;19.01;46.40;101383.22;4886828;29;46996;-80
2022/07/02 06:09:41;;;;;;;;;5.75;5.50;;;;;19.10;46.58;101390.34;4896381;28;45740;-82
2022/07/02 06:12:07;;;;;;;;;5.00;4.00;;;;;19.16;46.96;101395.06;4896085;28;45767;-80
2022/07/02 06:14:33;;;;;;;;;7.00;5.00;;;;;19.18;46.89;101397.56;4893597;28;46947;-80
2022/07/02 06:16:59;;;;;;;;;5.50;5.50;;;;;19.12;47.19;101393.69;4893590;29;45638;-81
2022/07/02 06:19:24;;;;;;;;;5.00;5.00;;;;;19.21;46.37;101397.31;4891256;28;46113;-81
2022/07/02 06:21:50;;;;;;;;;5.50;5.50;;;;;19.11;46.61;101385.88;4894543;28;45707;-79
2022/07/02 06:24:15;;;;;;;;;6.00;5.75;;;;;19.15;46.88;101384.59;4895959;29;46219;-80
2022/07/02 06:26:40;;;;;;;;;6.00;5.75;;;;;19.27;46.82;101402.84;4895294;28;46081;-80
2022/07/02 06:29:06;;;;;;;;;5.00;4.75;;;;;19.26;46.92;101400.38;4894886;28;45606;-81
2022/07/02 06:31:32;;;;;;;;;6.75;6.00;;;;;19.15;46.53;101372.16;4891037;29;46471;-80
2022/07/02 06:33:57;;;;;;;;;5.00;5.00;;;;;19.29;46.69;101386.78;4878921;29;47317;-81
2022/07/02 06:36:24;;;;;;;;;5.00;5.00;;;;;19.36;46.55;101398.50;4893824;28;46121;-79
2022/07/02 06:38:50;;;;;;;;;5.00;4.00;;;;;19.35;46.88;101393.31;4893211;28;45780;-81
2022/07/02 06:44:00;;;;;;;;;7.00;5.50;;;;;19.43;46.64;101393.44;4894748;28;46093;-81
2022/07/02 06:46:25;;;;;;;;;5.50;5.25;;;;;19.44;46.66;101390.63;4895717;29;45820;-81
2022/07/02 06:48:51;;;;;;;;;4.25;4.00;;;;;19.45;46.61;101391.50;4892679;28;46442;-80
2022/07/02 06:51:16;;;;;;;;;5.25;5.00;;;;;19.46;46.46;101387.84;4898066;28;47713;-80
2022/07/02 06:53:42;;;;;;;;;4.50;4.25;;;;;19.50;46.74;101387.41;4894837;29;46454;-81
2022/07/02 06:56:07;;;;;;;;;4.00;4.00;;;;;19.48;46.25;101385.91;4891206;28;45874;-80
2022/07/02 06:58:33;;;;;;;;;5.75;4.00;;;;;19.46;46.39;101377.22;4895283;29;45612;-81
2022/07/02 07:00:58;;;;;;;;;5.00;4.00;;;;;19.53;46.48;101381.81;4877637;29;48221;-80
2022/07/02 07:03:24;;;;;;;;;2.00;1.00;;;;;19.52;46.44;101369.50;4893496;28;45825;-80
2022/07/02 07:05:49;;;;;;;;;3.00;3.00;;;;;19.67;46.13;101393.75;4893853;28;46164;-82
2022/07/02 07:08:14;;;;;;;;;3.25;3.00;;;;;19.66;46.29;101395.56;4891086;28;45727;-78
2022/07/02 07:10:40;;;;;;;;;3.00;2.00;;;;;19.73;46.49;101392.31;4894818;28;46812;-80
2022/07/02 07:13:06;;;;;;;;;2.00;2.00;;;;;19.78;46.35;101398.03;4891661;28;45766;-82
2022/07/02 07:15:31;;;;;;;;;3.00;3.00;;;;;19.71;45.99;101379.16;4908218;28;45895;-80
2022/07/02 07:17:57;;;;;;;;;2.25;2.25;;;;;19.75;46.35;101375.25;4898605;28;45665;-82
2022/07/02 07:20:27;;;;;;;;;3.00;3.00;;;;;19.90;45.82;101386.19;4896119;28;47194;-82
2022/07/02 07:22:53;;;;;;;;;2.50;2.50;;;;;19.95;45.75;101390.09;4893986;28;46027;-81
2022/07/02 07:25:19;;;;;;;;;3.00;2.25;;;;;20.01;45.80;101380.66;4885850;28;46537;-79
2022/07/02 07:27:46;;;;;;;;;2.50;2.50;;;;;20.05;45.49;101377.56;4892675;28;45852;-81
2022/07/02 07:30:12;;;;;;;;;3.50;2.50;;;;;20.10;45.60;101377.09;4892439;28;47400;-83
2022/07/02 07:32:38;;;;;;;;;2.50;2.50;;;;;20.13;45.44;101382.94;4891624;28;46730;-78
2022/07/02 07:35:04;;;;;;;;;2.25;2.00;;;;;20.19;45.58;101383.34;4898731;28;45691;-81
2022/07/02 07:37:30;;;;;;;;;1.75;1.00;;;;;20.22;44.70;101377.69;4895461;28;45741;-80
2022/07/02 07:39:55;;;;;;;;;1.25;1.25;;;;;20.27;44.88;101378.06;4893593;28;45688;-79
2022/07/02 07:42:22;;;;;;;;;1.50;1.50;;;;;20.25;44.83;101374.72;4897119;28;45780;-80
2022/07/02 07:44:48;;;;;;;;;1.75;1.00;;;;;20.35;44.70;101379.00;4892716;28;45858;-81
2022/07/02 07:47:14;;;;;;;;;0.75;0.75;;;;;20.36;44.15;101367.38;4889649;29;45588;-79
2022/07/02 07:49:40;;;;;;;;;1.50;1.00;;;;;20.43;43.87;101373.75;4890508;28;45640;-81
2022/07/02 07:52:05;;;;;;;;;1.00;0.75;;;;;20.48;43.89;101371.47;4910150;28;45699;-81
2022/07/02 07:54:31;;;;;;;;;0.75;0.75;;;;;20.56;43.84;101378.69;4905195;28;46957;-80
2022/07/02 07:56:56;;;;;;;;;1.50;0.50;;;;;20.59;43.86;101366.88;4903652;28;46191;-82
2022/07/02 07:59:22;;;;;;;;;0.75;0.50;;;;;20.63;43.47;101368.25;4897084;28;46370;-82
2022/07/02 08:01:47;;;;;;;;;1.00;1.00;;;;;20.63;43.09;101361.09;4899130;28;45856;-81
2022/07/02 08:04:13;;;;;;;;;1.25;0.50;;;;;20.63;43.06;101352.25;4901769;28;46297;-77
2022/07/02 08:06:38;;;;;;;;;1.00;1.00;;;;;20.74;43.03;101368.00;4891988;28;45833;-79
2022/07/02 08:09:04;;;;;;;;;2.00;2.00;;;;;20.78;42.67;101356.06;4899580;28;46671;-83
2022/07/02 08:11:30;;;;;;;;;1.00;1.00;;;;;20.84;42.62;101366.06;4897062;28;46130;-80
2022/07/02 08:13:55;;;;;;;;;0.75;0.00;;;;;20.90;42.46;101371.59;4903750;28;45803;-84
2022/07/02 08:16:21;;;;;;;;;1.50;1.00;;;;;20.93;42.33;101371.31;4910180;28;45681;-82
2022/07/02 08:18:46;;;;;;;;;0.75;0.75;;;;;20.97;42.24;101361.16;4898265;28;46613;-79
2022/07/02 08:21:12;;;;;;;;;0.50;0.50;;;;;21.03;42.01;101362.34;4899324;28;46183;-83
2022/07/02 08:23:37;;;;;;;;;1.00;1.00;;;;;21.07;41.51;101374.34;4898814;28;45959;-86
2022/07/02 08:26:03;;;;;;;;;0.75;0.50;;;;;21.10;41.62;101364.25;4891645;28;46166;-84
2022/07/02 08:28:28;;;;;;;;;0.00;0.00;;;;;21.12;41.76;101362.22;4895574;29;45727;-84
2022/07/02 08:30:54;;;;;;;;;0.25;0.25;;;;;21.18;41.65;101360.78;4898754;28;46101;-80
2022/07/02 08:33:19;;;;;;;;;1.00;1.00;;;;;21.16;41.01;101352.94;4898391;29;45710;-83
2022/07/02 08:35:44;;;;;;;;;1.00;0.00;;;;;21.26;41.22;101366.19;4897484;28;45633;-85
2022/07/02 08:38:10;;;;;;;;;0.00;0.00;;;;;21.26;41.41;101359.03;4897486;28;45697;-81
2022/07/02 08:40:42;;;;;;;;;1.00;1.00;;;;;21.33;41.61;101361.84;4894035;29;45771;-84
2022/07/02 08:43:13;;;;;;;;;2.00;0.50;;;;;21.31;41.27;101354.03;4881261;29;47161;-78
2022/07/02 08:45:43;;;;;;;;;0.75;0.75;;;;;21.44;40.71;101358.06;4898863;29;45970;-80
2022/07/02 08:48:12;;;;;;;;;0.25;0.00;;;;;21.42;40.59;101352.06;4880783;29;47767;-79
2022/07/02 08:50:39;;;;;;;;;0.00;0.00;;;;;21.43;40.54;101343.09;4898557;28;46329;-77
2022/07/02 08:53:05;;;;;;;;;0.00;0.00;;;;;21.44;40.19;101339.41;4897182;28;46713;-81
2022/07/02 08:55:35;;;;;;;;;1.00;0.25;;;;;21.49;40.54;101343.25;4896058;28;46387;-82
2022/07/02 08:58:02;;;;;;;;;2.00;1.00;;;;;21.55;40.46;101345.28;4904730;28;45839;-81
2022/07/02 09:00:28;;;;;;;;;0.00;0.00;;;;;21.57;40.04;101339.78;4903493;28;46122;-81
2022/07/02 09:02:55;;;;;;;;;2.50;0.75;;;;;21.67;40.43;101354.66;4907914;28;45783;-82
2022/07/02 09:05:21;;;;;;;;;0.00;0.00;;;;;21.62;39.90;101334.81;4892164;28;45916;-81
2022/07/02 09:07:47;;;;;;;;;3.25;3.00;;;;;21.65;39.63;101337.97;4883001;28;46901;-80
2022/07/02 09:10:17;;;;;;;;;0.00;0.00;;;;;21.77;39.38;101347.34;4899863;28;48058;-82
2022/07/02 09:12:45;;;;;;;;;0.00;0.00;;;;;21.75;39.17;101338.66;4898118;28;45692;-81
2022/07/02 09:15:13;;;;;;;;;1.00;1.00;;;;;21.80;39.67;101332.00;4905415;28;45922;-85
2022/07/02 09:17:42;;;;;;;;;0.25;0.25;;;;;21.88;38.63;101337.34;4899373;29;46730;-88
2022/07/02 09:20:08;;;;;;;;;1.00;0.75;;;;;21.79;39.27;101323.16;4900573;28;46146;-87
2022/07/02 09:22:36;;;;;;;;;0.50;0.50;;;;;21.95;40.10;101341.91;4893415;28;46776;-88
2022/07/02 09:25:35;;;;;;;;;1.00;0.00;;;;;22.01;39.42;101345.75;4899478;29;45780;-84
2022/07/02 09:28:03;;;;;;;;;0.00;0.00;;;;;21.99;38.81;101339.72;4896077;29;45649;-84
2022/07/02 09:30:32;;;;;;;;;1.00;0.25;;;;;22.04;38.96;101337.41;4889266;29;46157;-81
2022/07/02 09:35:42;;;;;;;;;0.00;0.00;;;;;22.06;39.34;101327.41;4910110;29;45425;-83
2022/07/02 09:38:10;;;;;;;;;1.00;0.25;;;;;22.08;38.88;101326.22;4911158;28;46462;-83
2022/07/02 09:40:37;;;;;;;;;0.00;0.00;;;;;22.13;38.95;101320.41;4909674;29;45574;-80
2022/07/02 09:43:03;;;;;;;;;0.25;0.00;;;;;22.09;38.69;101313.72;4900142;28;45695;-81
2022/07/02 09:45:29;;;;;;;;;1.00;0.00;;;;;22.16;38.68;101323.56;4897821;29;45906;-80
2022/07/02 09:47:54;;;;;;;;;0.25;0.25;;;;;22.21;38.59;101320.41;4898646;28;45794;-85
2022/07/02 09:50:22;;;;;;;;;1.00;1.00;;;;;22.23;38.63;101317.56;4899442;29;46381;-83
2022/07/02 09:52:52;;;;;;;;;1.25;1.00;;;;;22.29;38.89;101325.75;4904841;28;45622;-85
2022/07/02 09:55:23;;;;;;;;;0.00;0.00;;;;;22.33;38.56;101324.41;4900796;29;45790;-84
2022/07/02 09:57:53;;;;;;;;;0.00;0.00;;;;;22.31;38.46;101321.06;4898198;28;45763;-84
2022/07/02 10:00:20;;;;;;;;;1.00;1.00;;;;;22.40;38.72;101317.38;4897678;29;46385;-82
2022/07/02 10:02:53;;;;;;;;;1.00;0.25;;;;;22.44;39.01;101313.38;4892913;29;45787;-84
2022/07/02 10:05:31;;;;;;;;;1.00;0.00;;;;;22.47;38.62;101321.03;4897331;29;45780;-85
2022/07/02 10:07:59;;;;;;;;;0.75;0.75;;;;;22.52;37.93;101308.00;4896613;28;46635;-83
2022/07/02 10:10:41;;;;;;;;;0.75;0.75;;;;;22.54;38.69;101295.34;4897427;29;45473;-80
2022/07/02 10:13:08;;;;;;;;;0.25;0.00;;;;;22.49;38.12;101281.66;4898364;29;46036;-87
2022/07/02 10:15:37;;;;;;;;;1.00;1.00;;;;;22.64;37.32;101295.13;4898165;29;45801;-88
2022/07/02 10:18:03;;;;;;;;;1.00;1.00;;;;;22.57;37.59;101276.28;4897185;29;46715;-86
2022/07/02 10:20:30;;;;;;;;;0.00;0.00;;;;;22.68;38.17;101287.59;4897934;29;45978;-86
2022/07/02 10:23:02;;;;;;;;;1.00;0.25;;;;;22.74;37.31;101290.47;4897928;28;46055;-85
2022/07/02 10:25:28;;;;;;;;;0.00;0.00;;;;;22.77;36.79;101286.63;4897777;29;45686;-89
2022/07/02 10:27:55;;;;;;;;;0.00;0.00;;;;;22.78;36.46;101285.63;4897564;29;46531;-87
2022/07/02 10:30:24;;;;;;;;;0.00;0.00;;;;;22.85;36.10;101286.59;4897993;29;46170;-88
2022/07/02 10:33:02;;;;;;;;;1.00;1.00;;;;;22.86;36.27;101288.28;4898062;29;45722;-88
2022/07/02 10:35:28;;;;;;;;;0.00;0.00;;;;;22.81;36.60;101269.25;4887001;29;45811;-87
2022/07/02 10:37:58;;;;;;;;;1.25;1.00;;;;;22.90;36.51;101290.41;4898073;28;45774;-86
2022/07/02 10:40:23;;;;;;;;;0.00;0.00;;;;;22.97;37.12;101286.06;4899981;29;46196;-86
2022/07/02 10:42:50;;;;;;;;;1.00;1.00;;;;;22.96;36.96;101270.19;4901321;29;45595;-85
2022/07/02 10:45:18;;;;;;;;;0.75;0.75;;;;;22.99;36.80;101275.19;4901766;29;45771;-86
2022/07/02 10:48:02;;;;;;;;;1.00;1.00;;;;;23.08;36.16;101281.34;4896924;29;47155;-84
2022/07/02 10:50:39;;;;;;;;;1.00;1.00;;;;;23.12;36.71;101285.31;4897975;29;46102;-85
2022/07/02 10:53:19;;;;;;;;;0.00;0.00;;;;;23.15;36.04;101274.28;4896802;29;45729;-87
2022/07/02 10:55:55;;;;;;;;;0.00;0.00;;;;;23.18;35.76;101277.44;4897282;29;45724;-84
2022/07/02 10:58:24;;;;;;;;;1.00;1.00;;;;;23.18;35.83;101272.09;4898211;28;45624;-85
2022/07/02 11:00:50;;;;;;;;;0.50;0.50;;;;;23.20;36.01;101263.91;4898187;29;45956;-86
2022/07/02 11:03:26;;;;;;;;;0.00;0.00;;;;;23.22;36.05;101259.19;4897706;29;45708;-84
2022/07/02 11:05:51;;;;;;;;;1.00;1.00;;;;;23.25;35.59;101261.53;4880111;29;46093;-83
2022/07/02 11:08:49;;;;;;;;;0.50;0.50;;;;;23.27;35.40;101260.34;4898296;29;46367;-86
2022/07/02 11:11:16;;;;;;;;;1.00;1.00;;;;;23.28;36.21;101259.34;4889070;29;46031;-87
2022/07/02 11:13:49;;;;;;;;;2.25;1.00;;;;;23.34;36.38;101257.81;4898211;29;45678;-88
2022/07/02 11:16:27;;;;;;;;;1.75;1.75;;;;;23.30;35.32;101256.50;4898288;28;45621;-87
2022/07/02 11:18:54;;;;;;;;;1.00;1.00;;;;;23.42;35.63;101274.66;4898734;29;45611;-88
2022/07/02 11:21:23;;;;;;;;;1.00;1.00;;;;;23.46;35.68;101263.63;4902466;29;46365;-85
2022/07/02 11:23:49;;;;;;;;;1.00;1.00;;;;;23.53;35.75;101270.78;4901183;28;45640;-82
2022/07/02 11:26:16;;;;;;;;;1.25;1.00;;;;;23.54;35.73;101267.06;4900392;29;45801;-87
2022/07/02 11:28:43;;;;;;;;;2.00;2.00;;;;;23.60;35.45;101265.53;4901331;29;46763;-89
2022/07/02 11:31:10;;;;;;;;;1.75;1.75;;;;;23.66;35.71;101271.00;4901313;29;46046;-88
2022/07/02 11:33:36;;;;;;;;;2.75;2.75;;;;;23.68;35.49;101258.28;4886517;29;45529;-87
2022/07/02 11:36:01;;;;;;;;;1.00;1.00;;;;;23.67;34.99;101245.91;4902859;28;45670;-84
2022/07/02 11:38:37;;;;;;;;;4.25;4.25;;;;;23.77;35.03;101257.22;4903233;29;46036;-87
2022/07/02 11:41:03;;;;;;;;;2.00;2.00;;;;;23.81;34.88;101261.19;4883132;29;46946;-84
2022/07/02 11:43:29;;;;;;;;;2.25;1.75;;;;;23.78;34.74;101237.47;4900073;29;45711;-82
2022/07/02 11:45:54;;;;;;;;;2.00;2.00;;;;;23.79;34.87;101244.50;4901481;29;45987;-84
2022/07/02 11:48:23;;;;;;;;;2.25;2.00;;;;;23.91;34.47;101250.25;4902849;28;45619;-85
2022/07/02 11:50:56;;;;;;;;;2.00;2.00;;;;;23.93;35.30;101250.06;4903727;29;45865;-83
2022/07/02 11:53:23;;;;;;;;;1.00;1.00;;;;;23.94;35.09;101241.00;4902825;29;45707;-83
2022/07/02 11:55:48;;;;;;;;;2.00;1.50;;;;;23.97;34.93;101236.13;4901057;29;45985;-79
2022/07/02 11:58:13;;;;;;;;;2.00;1.00;;;;;24.03;34.38;101239.91;4899252;29;48502;-80
2022/07/02 12:00:42;;;;;;;;;2.00;1.75;;;;;24.04;35.00;101242.44;4895864;29;46748;-84
2022/07/02 12:03:12;;;;;;;;;1.00;1.00;;;;;24.05;35.03;101233.38;4900505;29;45909;-86
2022/07/02 12:05:49;;;;;;;;;2.00;2.00;;;;;24.12;34.66;101237.00;4896024;28;46098;-85
2022/07/02 12:08:15;;;;;;;;;1.75;1.25;;;;;24.08;34.55;101210.75;4883069;29;48026;-86
2022/07/02 12:10:40;;;;;;;;;1.00;1.00;;;;;24.17;34.41;101226.63;4900320;29;46039;-85
2022/07/02 12:13:10;;;;;;;;;2.00;1.50;;;;;24.26;34.54;101232.72;4883508;29;45733;-86
2022/07/02 12:15:47;;;;;;;;;1.00;1.00;;;;;24.28;34.41;101221.81;4900523;28;45564;-87
2022/07/02 12:18:20;;;;;;;;;1.00;1.00;;;;;24.29;33.78;101208.25;4901275;29;47063;-90
2022/07/02 12:20:46;;;;;;;;;2.00;1.75;;;;;24.35;33.54;101212.03;4889834;29;46525;-89
2022/07/02 12:23:12;;;;;;;;;2.00;1.50;;;;;24.35;33.83;101204.81;4883356;29;45657;-86
2022/07/02 12:25:47;;;;;;;;;1.00;1.00;;;;;24.35;33.71;101199.47;4900300;29;45771;-85
2022/07/02 12:31:22;;;;;;;;;2.00;1.00;;;;;24.47;33.47;101195.31;4900823;28;46071;-87